Time;durP1;ratioP1;P1;durP2;ratioP2;P2;SDS_P1;SDS_P2;PMS_P1;PMS_P2;Temp;Humidity;BMP_temperature;BMP_pressure;BME280_temperature;BME280_humidity;BME280_pressure;Samples;Min_cycle;Max_cycle;Signal;HPM_P1;HPM_P2
2023/01/30 00:00:13;;;;;;;14.63;8.10;;;-1.30;99.90;;;;;;7693630;28;20258;-88
2023/01/30 00:03:59;;;;;;;17.20;8.87;;;-1.30;99.90;;;;;;7716042;28;20689;-89
2023/01/30 00:07:46;;;;;;;17.27;9.27;;;-1.30;99.90;;;;;;7714801;28;20219;-89
2023/01/30 00:11:32;;;;;;;16.90;8.57;;;-1.30;99.90;;;;;;7732763;28;20198;-90
2023/01/30 00:15:17;;;;;;;12.43;7.03;;;-1.20;99.90;;;;;;7716911;28;20684;-90
2023/01/30 00:19:03;;;;;;;16.83;8.27;;;-1.30;99.90;;;;;;7714985;28;20693;-89
2023/01/30 00:22:49;;;;;;;13.80;8.03;;;-1.30;99.90;;;;;;7715202;28;20203;-91
2023/01/30 00:26:34;;;;;;;15.13;7.93;;;-1.30;99.90;;;;;;7714316;28;20251;-90
2023/01/30 00:30:20;;;;;;;17.07;7.70;;;-1.30;99.90;;;;;;7714883;28;20211;-87
2023/01/30 00:34:05;;;;;;;13.80;6.97;;;-1.30;99.90;;;;;;7735047;28;20678;-88
2023/01/30 00:37:51;;;;;;;14.53;7.50;;;-1.20;99.90;;;;;;7716855;28;20813;-89
2023/01/30 00:49:47;;;;;;;13.70;6.83;;;-1.20;99.90;;;;;;7752967;28;20255;-86
2023/01/30 00:53:33;;;;;;;14.67;7.23;;;-1.20;99.90;;;;;;7754823;28;20194;-86
2023/01/30 00:57:18;;;;;;;12.63;7.13;;;-1.20;99.90;;;;;;7757276;28;21045;-87
2023/01/30 01:01:04;;;;;;;14.83;7.50;;;-1.10;99.90;;;;;;7734892;28;20189;-90
2023/01/30 01:04:50;;;;;;;11.30;6.77;;;-1.20;99.90;;;;;;7726575;28;20766;-88
2023/01/30 01:08:35;;;;;;;14.50;7.80;;;-1.20;99.90;;;;;;7745173;28;20200;-89
2023/01/30 01:12:21;;;;;;;13.63;7.50;;;-1.20;99.90;;;;;;7744631;28;20180;-87
2023/01/30 01:16:07;;;;;;;14.60;7.10;;;-1.10;99.90;;;;;;7714574;28;20263;-88
2023/01/30 01:19:52;;;;;;;17.57;8.20;;;-1.10;99.90;;;;;;7716197;28;20685;-91
2023/01/30 01:23:38;;;;;;;14.87;7.90;;;-1.10;99.90;;;;;;7730557;28;20198;-89
2023/01/30 01:27:24;;;;;;;14.63;7.80;;;-1.10;99.90;;;;;;7725842;28;20208;-88
2023/01/30 01:31:11;;;;;;;12.10;7.00;;;-1.10;99.90;;;;;;7713883;28;20179;-90
2023/01/30 01:34:56;;;;;;;14.30;7.53;;;-1.00;99.90;;;;;;7716009;28;20188;-89
2023/01/30 01:38:42;;;;;;;16.03;7.40;;;-0.90;99.90;;;;;;7723093;28;20251;-89
2023/01/30 01:42:32;;;;;;;14.60;8.53;;;-0.90;99.90;;;;;;7715673;28;20180;-89
2023/01/30 01:46:22;;;;;;;13.90;8.00;;;-0.90;99.90;;;;;;7742153;28;20254;-90
2023/01/30 01:50:18;;;;;;;11.90;6.90;;;-0.90;99.90;;;;;;7743635;28;20214;-90
2023/01/30 01:54:08;;;;;;;15.80;7.63;;;-0.90;99.90;;;;;;7729108;28;20638;-90
2023/01/30 01:58:03;;;;;;;16.10;8.10;;;-0.90;99.90;;;;;;7712833;28;20217;-90
2023/01/30 02:01:49;;;;;;;12.40;7.40;;;-0.90;99.90;;;;;;7731845;28;20187;-89
2023/01/30 02:05:43;;;;;;;15.10;8.33;;;-0.80;99.90;;;;;;7724358;28;20181;-91
2023/01/30 02:09:29;;;;;;;14.30;7.77;;;-0.80;99.90;;;;;;7684512;28;20204;-90
2023/01/30 02:13:14;;;;;;;14.57;7.90;;;-0.80;99.90;;;;;;7710093;28;20226;-89
2023/01/30 02:17:00;;;;;;;15.13;8.67;;;-0.90;99.90;;;;;;7742738;28;20204;-88
2023/01/30 02:21:22;;;;;;;16.33;8.50;;;-0.90;99.90;;;;;;7719842;28;20228;-90
2023/01/30 02:25:23;;;;;;;14.53;7.37;;;-0.90;99.90;;;;;;7717982;28;20191;-89
2023/01/30 02:29:24;;;;;;;17.63;8.70;;;-0.90;99.90;;;;;;7738765;28;20191;-90
2023/01/30 02:33:23;;;;;;;13.27;7.70;;;-0.90;99.90;;;;;;7748808;28;20180;-89
2023/01/30 02:37:29;;;;;;;15.83;8.67;;;-0.80;99.90;;;;;;7734660;28;20204;-92
2023/01/30 02:41:23;;;;;;;14.67;7.97;;;-0.80;99.90;;;;;;7692099;28;20697;-90
2023/01/30 02:45:18;;;;;;;13.70;7.90;;;-0.80;99.90;;;;;;7726886;28;20176;-89
2023/01/30 02:49:16;;;;;;;18.20;8.67;;;-0.80;99.90;;;;;;7758619;28;20211;-88
2023/01/30 02:53:04;;;;;;;14.50;7.70;;;-0.70;99.90;;;;;;7739791;28;20630;-89
2023/01/30 02:56:52;;;;;;;12.47;7.77;;;-0.70;99.90;;;;;;7727423;28;20346;-88
2023/01/30 03:01:14;;;;;;;14.50;8.03;;;-0.70;99.90;;;;;;7759918;28;20662;-90
2023/01/30 03:05:12;;;;;;;17.20;8.83;;;-0.60;99.90;;;;;;7710687;28;20650;-89
2023/01/30 03:09:24;;;;;;;14.37;7.90;;;-0.60;99.90;;;;;;7723339;28;20674;-90
2023/01/30 03:13:32;;;;;;;15.23;7.20;;;-0.50;99.90;;;;;;7717944;28;20184;-90
2023/01/30 03:17:22;;;;;;;13.40;7.77;;;-0.40;99.90;;;;;;7716198;28;20299;-91
2023/01/30 03:21:08;;;;;;;14.70;7.77;;;-0.30;99.90;;;;;;7715442;28;20319;-90
2023/01/30 03:24:53;;;;;;;12.43;7.80;;;-0.30;99.90;;;;;;7717022;28;20180;-91
2023/01/30 03:28:40;;;;;;;14.70;8.23;;;-0.20;99.90;;;;;;7728388;28;20218;-90
2023/01/30 03:32:25;;;;;;;14.83;8.20;;;-0.10;99.90;;;;;;7747289;28;20235;-90
2023/01/30 03:36:11;;;;;;;15.33;8.20;;;-0.20;99.90;;;;;;7746446;28;20195;-90
2023/01/30 03:39:58;;;;;;;15.40;8.33;;;-0.20;99.90;;;;;;7716698;28;20216;-91
2023/01/30 03:43:43;;;;;;;16.07;7.97;;;-0.10;99.90;;;;;;7717051;28;20216;-90
2023/01/30 03:47:29;;;;;;;12.17;7.03;;;-0.10;99.90;;;;;;7715507;28;20223;-89
2023/01/30 03:51:14;;;;;;;14.07;7.90;;;-0.10;99.90;;;;;;7716037;28;20204;-90
2023/01/30 03:55:00;;;;;;;13.60;7.27;;;0.00;99.90;;;;;;7715496;28;20208;-90
2023/01/30 03:58:46;;;;;;;13.80;7.93;;;0.00;99.90;;;;;;7715402;28;20216;-90
2023/01/30 04:02:32;;;;;;;15.93;8.37;;;0.00;99.90;;;;;;7721696;28;20242;-89
2023/01/30 04:06:17;;;;;;;13.30;7.57;;;0.10;99.90;;;;;;7728840;28;20204;-89
2023/01/30 04:10:03;;;;;;;13.50;7.77;;;0.10;99.90;;;;;;7715376;28;20219;-90
2023/01/30 04:13:49;;;;;;;11.53;6.30;;;0.20;99.90;;;;;;7715899;28;20191;-90
2023/01/30 04:17:35;;;;;;;12.57;7.63;;;0.30;99.90;;;;;;7701409;28;20217;-89
2023/01/30 04:21:20;;;;;;;12.47;7.00;;;0.20;99.90;;;;;;7729793;28;20211;-88
2023/01/30 04:25:06;;;;;;;11.27;6.17;;;0.30;99.90;;;;;;7745421;28;20180;-88
2023/01/30 04:28:52;;;;;;;11.47;6.63;;;0.30;99.90;;;;;;7719360;28;20582;-90
2023/01/30 04:32:38;;;;;;;13.90;6.17;;;0.40;99.90;;;;;;7732414;28;20796;-89
2023/01/30 04:36:23;;;;;;;10.93;6.63;;;0.40;99.90;;;;;;7738117;28;20236;-89
2023/01/30 04:40:10;;;;;;;11.60;6.90;;;0.50;99.90;;;;;;7719424;28;20204;-89
2023/01/30 04:43:55;;;;;;;9.97;5.87;;;0.50;99.90;;;;;;7727483;28;20216;-90
2023/01/30 04:47:41;;;;;;;13.77;6.70;;;0.50;99.90;;;;;;7710578;28;20217;-89
2023/01/30 04:51:27;;;;;;;13.17;6.93;;;0.70;99.90;;;;;;7715178;28;20769;-89
2023/01/30 04:55:13;;;;;;;11.93;6.67;;;0.60;99.90;;;;;;7694684;28;20189;-90
2023/01/30 04:58:58;;;;;;;11.77;6.63;;;0.70;99.90;;;;;;7725795;28;20698;-89
2023/01/30 05:02:44;;;;;;;12.37;6.93;;;0.70;99.90;;;;;;7715670;28;20188;-90
2023/01/30 05:06:31;;;;;;;10.87;5.37;;;0.70;99.90;;;;;;7707482;28;20264;-87
2023/01/30 05:10:17;;;;;;;12.33;7.23;;;0.70;99.90;;;;;;7688294;28;20192;-89
2023/01/30 05:14:03;;;;;;;11.57;6.97;;;0.80;99.90;;;;;;7713089;28;20196;-89
2023/01/30 05:17:49;;;;;;;14.37;7.43;;;0.80;99.90;;;;;;7712848;28;20716;-90
2023/01/30 05:21:34;;;;;;;12.17;7.20;;;0.80;99.90;;;;;;7719076;28;20183;-89
2023/01/30 05:25:20;;;;;;;14.33;6.93;;;0.90;99.90;;;;;;7721783;28;20548;-91
2023/01/30 05:29:06;;;;;;;11.03;6.57;;;0.80;99.90;;;;;;7707540;28;20212;-89
2023/01/30 05:32:51;;;;;;;10.20;6.03;;;1.00;99.90;;;;;;7709235;28;20203;-90
2023/01/30 05:49:34;;;;;;;13.10;7.60;;;1.00;99.90;;;;;;7713993;28;20592;-89
2023/01/30 05:53:20;;;;;;;14.93;8.30;;;1.00;99.90;;;;;;7716531;28;20266;-89
2023/01/30 05:57:06;;;;;;;13.43;6.33;;;1.10;99.90;;;;;;7721344;28;20235;-90
2023/01/30 06:00:52;;;;;;;14.17;7.33;;;1.10;99.90;;;;;;7718478;28;20201;-90
2023/01/30 06:04:38;;;;;;;12.07;6.77;;;1.10;99.90;;;;;;7719017;28;20196;-89
2023/01/30 06:08:24;;;;;;;13.30;7.23;;;1.20;99.90;;;;;;7720251;28;20189;-90
2023/01/30 06:12:09;;;;;;;12.17;7.30;;;1.20;99.90;;;;;;7721483;28;20657;-89
2023/01/30 06:15:55;;;;;;;11.13;6.77;;;1.30;99.90;;;;;;7720246;28;20189;-89
2023/01/30 06:19:44;;;;;;;13.00;7.63;;;1.30;99.90;;;;;;7719643;28;20728;-89
2023/01/30 06:23:30;;;;;;;13.77;7.70;;;1.30;99.90;;;;;;7719711;28;20212;-89
2023/01/30 06:27:16;;;;;;;12.70;7.60;;;1.30;99.90;;;;;;7719618;28;20627;-89
2023/01/30 06:31:04;;;;;;;15.27;8.03;;;1.30;99.90;;;;;;7720759;28;20551;-89
2023/01/30 06:34:49;;;;;;;14.10;7.10;;;1.30;99.90;;;;;;7719594;28;20205;-89
2023/01/30 06:38:35;;;;;;;13.53;7.87;;;1.40;99.90;;;;;;7719373;28;20216;-89
2023/01/30 06:42:20;;;;;;;11.77;7.30;;;1.40;99.90;;;;;;7719299;28;20212;-89
2023/01/30 06:46:06;;;;;;;13.57;8.10;;;1.40;99.90;;;;;;7719098;28;20219;-89
2023/01/30 06:49:52;;;;;;;10.83;7.00;;;1.40;99.90;;;;;;7719092;28;20185;-89
2023/01/30 06:53:37;;;;;;;14.00;8.50;;;1.40;99.90;;;;;;7718697;28;20211;-89
2023/01/30 06:57:23;;;;;;;11.63;6.93;;;1.40;99.90;;;;;;7718791;28;20674;-89
2023/01/30 07:01:08;;;;;;;14.90;7.83;;;1.40;99.90;;;;;;7718566;28;20195;-89
2023/01/30 07:04:54;;;;;;;12.90;6.73;;;1.50;99.90;;;;;;7718428;28;20664;-89
2023/01/30 07:08:40;;;;;;;14.50;8.03;;;1.40;99.90;;;;;;7718314;28;20177;-89
2023/01/30 07:12:26;;;;;;;13.70;7.57;;;1.40;99.90;;;;;;7718585;28;20208;-89
2023/01/30 07:16:11;;;;;;;14.40;7.90;;;1.40;99.90;;;;;;7718454;28;20761;-92
2023/01/30 07:19:57;;;;;;;18.97;10.13;;;1.40;99.90;;;;;;7719120;28;20188;-89
2023/01/30 07:23:43;;;;;;;13.90;8.40;;;1.40;99.90;;;;;;7718042;28;20204;-89
2023/01/30 07:27:28;;;;;;;14.63;7.77;;;1.30;99.90;;;;;;7717939;28;20238;-89
2023/01/30 07:31:14;;;;;;;14.33;8.57;;;1.30;99.90;;;;;;7718060;28;20188;-89
2023/01/30 07:35:00;;;;;;;16.17;8.73;;;1.30;99.90;;;;;;7717707;28;20203;-89
2023/01/30 07:38:48;;;;;;;14.57;8.33;;;1.30;99.90;;;;;;7717493;28;20197;-90
2023/01/30 07:42:33;;;;;;;16.87;7.93;;;1.30;99.90;;;;;;7717639;28;20218;-90
2023/01/30 07:46:19;;;;;;;12.50;7.67;;;1.30;99.90;;;;;;7717433;28;20193;-89
2023/01/30 07:50:05;;;;;;;15.67;8.57;;;1.30;99.90;;;;;;7717349;28;20180;-89
2023/01/30 07:53:51;;;;;;;12.97;7.73;;;1.30;99.90;;;;;;7717201;28;20216;-89
2023/01/30 07:57:37;;;;;;;11.53;7.07;;;1.40;99.90;;;;;;7717093;28;20180;-90
2023/01/30 08:01:22;;;;;;;10.37;6.23;;;1.40;99.90;;;;;;7717113;28;20236;-89
2023/01/30 08:05:08;;;;;;;13.10;6.37;;;1.40;99.90;;;;;;7717006;28;20216;-89
2023/01/30 08:08:54;;;;;;;11.00;6.97;;;1.50;99.90;;;;;;7716941;28;20181;-89
2023/01/30 08:12:40;;;;;;;11.57;6.23;;;1.60;99.90;;;;;;7716807;28;20678;-89
2023/01/30 08:16:26;;;;;;;9.00;5.77;;;1.70;99.90;;;;;;7715895;28;20180;-89
2023/01/30 08:20:15;;;;;;;10.37;6.00;;;1.70;99.90;;;;;;7716550;28;20741;-91
2023/01/30 08:24:00;;;;;;;10.10;6.10;;;1.70;99.90;;;;;;7716585;28;20572;-89
2023/01/30 08:27:46;;;;;;;9.33;5.77;;;1.70;99.90;;;;;;7716149;28;20181;-89
2023/01/30 08:31:31;;;;;;;7.73;5.10;;;1.70;99.90;;;;;;7716272;28;20177;-89
2023/01/30 08:35:17;;;;;;;8.40;5.47;;;1.70;99.90;;;;;;7715848;28;20253;-89
2023/01/30 08:39:03;;;;;;;8.67;4.70;;;1.80;99.90;;;;;;7715728;28;20295;-89
2023/01/30 08:42:49;;;;;;;9.50;5.73;;;1.70;99.90;;;;;;7716307;28;20232;-89
2023/01/30 08:46:35;;;;;;;9.40;6.07;;;1.70;99.90;;;;;;7715604;28;20199;-88
2023/01/30 08:50:21;;;;;;;8.63;5.23;;;1.60;99.90;;;;;;7716352;28;20234;-91
2023/01/30 08:54:10;;;;;;;9.00;5.50;;;1.70;99.90;;;;;;7718635;28;20201;-92
2023/01/30 08:57:55;;;;;;;9.43;5.63;;;1.50;99.90;;;;;;7716617;28;20825;-89
2023/01/30 09:01:41;;;;;;;7.63;4.57;;;1.70;99.90;;;;;;7715618;28;20440;-89
2023/01/30 09:05:28;;;;;;;7.17;5.00;;;1.70;99.90;;;;;;7715407;28;20200;-89
2023/01/30 09:09:14;;;;;;;7.73;4.90;;;1.80;99.90;;;;;;7715484;28;20207;-89
2023/01/30 09:13:00;;;;;;;6.37;4.30;;;1.70;99.90;;;;;;7715437;28;20781;-89
2023/01/30 09:16:47;;;;;;;5.83;3.83;;;1.80;99.90;;;;;;7715478;28;20184;-89
2023/01/30 09:20:32;;;;;;;4.40;3.57;;;1.90;99.90;;;;;;7715177;28;20297;-89
2023/01/30 09:24:26;;;;;;;5.23;3.63;;;1.90;99.90;;;;;;7715201;28;20251;-90
2023/01/30 09:28:12;;;;;;;6.30;2.93;;;1.90;99.90;;;;;;7718462;28;20656;-89
2023/01/30 09:31:58;;;;;;;4.60;3.33;;;2.00;99.90;;;;;;7721097;28;20768;-88
2023/01/30 09:35:46;;;;;;;5.87;3.57;;;2.00;99.90;;;;;;7721416;28;20185;-90
2023/01/30 09:39:32;;;;;;;4.80;3.27;;;2.00;99.90;;;;;;7721149;28;20580;-90
2023/01/30 09:43:34;;;;;;;6.67;3.40;;;2.10;99.90;;;;;;7720928;28;20311;-89
2023/01/30 09:47:31;;;;;;;4.90;3.03;;;2.10;99.90;;;;;;7720146;28;20200;-90
2023/01/30 09:51:41;;;;;;;4.80;3.00;;;2.10;99.90;;;;;;7718722;28;20179;-90
2023/01/30 09:55:29;;;;;;;3.97;2.80;;;2.20;99.90;;;;;;7718539;28;20212;-89
2023/01/30 09:59:23;;;;;;;5.80;3.43;;;2.10;99.90;;;;;;7718521;28;20586;-89
2023/01/30 10:03:47;;;;;;;5.47;3.63;;;2.20;99.90;;;;;;7718379;28;20205;-90
2023/01/30 10:07:54;;;;;;;4.47;2.80;;;2.20;99.90;;;;;;7655876;29;20186;-90
2023/01/30 10:12:17;;;;;;;5.60;3.33;;;2.30;99.90;;;;;;7655783;29;20241;-87
2023/01/30 10:16:20;;;;;;;6.20;3.97;;;2.30;99.90;;;;;;7639051;29;20682;-83
2023/01/30 10:20:20;;;;;;;4.63;3.10;;;2.30;99.90;;;;;;7639897;29;20198;-90
2023/01/30 10:24:17;;;;;;;4.00;2.87;;;2.40;99.90;;;;;;7656004;29;20232;-90
2023/01/30 10:28:28;;;;;;;4.17;2.70;;;2.50;99.90;;;;;;7656002;29;20228;-89
2023/01/30 10:32:19;;;;;;;3.90;2.57;;;2.50;99.90;;;;;;7639966;29;20176;-89
2023/01/30 10:36:17;;;;;;;3.83;2.60;;;2.50;99.90;;;;;;7639880;29;20194;-89
2023/01/30 10:40:20;;;;;;;2.90;2.30;;;2.60;99.90;;;;;;7639130;29;20284;-90
2023/01/30 10:44:34;;;;;;;3.27;2.37;;;2.60;99.90;;;;;;7711693;28;20213;-90
2023/01/30 10:48:51;;;;;;;3.30;2.27;;;2.70;99.90;;;;;;7679585;28;1130908;-89
2023/01/30 10:53:04;;;;;;;3.33;2.23;;;2.60;99.90;;;;;;7719120;28;20671;-89
2023/01/30 10:57:16;;;;;;;5.47;3.30;;;2.70;99.90;;;;;;7718857;28;20207;-89
2023/01/30 11:01:06;;;;;;;4.27;2.63;;;2.70;99.90;;;;;;7718854;28;20236;-89
2023/01/30 11:05:03;;;;;;;3.77;2.20;;;2.70;99.90;;;;;;7718127;28;20259;-89
2023/01/30 11:08:49;;;;;;;4.50;2.40;;;2.70;99.90;;;;;;7718309;28;20173;-90
2023/01/30 11:12:35;;;;;;;3.23;2.40;;;2.60;99.90;;;;;;7717805;28;20563;-88
2023/01/30 11:16:21;;;;;;;3.63;2.50;;;2.70;99.90;;;;;;7717488;28;20185;-88
2023/01/30 11:20:15;;;;;;;2.27;1.90;;;2.70;99.90;;;;;;7717102;28;20204;-87
2023/01/30 11:24:11;;;;;;;2.83;2.10;;;2.50;99.90;;;;;;7718637;28;20565;-88
2023/01/30 11:28:04;;;;;;;2.83;1.90;;;2.50;99.90;;;;;;7718333;28;20215;-89
2023/01/30 11:31:50;;;;;;;2.43;1.60;;;2.50;99.90;;;;;;7718178;28;20188;-88
2023/01/30 11:35:42;;;;;;;3.40;2.10;;;2.40;99.90;;;;;;7717465;28;20205;-89
2023/01/30 11:39:28;;;;;;;3.40;1.93;;;2.50;99.90;;;;;;7717278;28;20200;-90
2023/01/30 11:43:14;;;;;;;3.13;2.13;;;2.50;99.90;;;;;;7716634;28;20681;-90
2023/01/30 11:47:12;;;;;;;3.87;2.60;;;2.40;99.90;;;;;;7716863;28;20251;-89
2023/01/30 11:51:03;;;;;;;4.47;3.10;;;2.40;99.90;;;;;;7716831;28;20169;-89
2023/01/30 11:54:49;;;;;;;4.03;2.93;;;2.40;99.90;;;;;;7716797;28;20228;-88
2023/01/30 11:58:39;;;;;;;5.43;3.10;;;2.40;99.90;;;;;;7716657;28;20215;-88
2023/01/30 12:02:31;;;;;;;5.23;3.00;;;2.50;99.90;;;;;;7716620;28;20215;-87
2023/01/30 12:06:31;;;;;;;4.00;2.67;;;2.40;99.90;;;;;;7716586;28;20564;-88
2023/01/30 12:10:30;;;;;;;3.40;2.60;;;2.40;99.90;;;;;;7716445;28;20192;-88
2023/01/30 12:14:39;;;;;;;3.60;2.83;;;2.40;99.90;;;;;;7716574;28;20208;-89
2023/01/30 12:18:43;;;;;;;5.37;2.97;;;2.40;99.90;;;;;;7716399;28;20203;-89
2023/01/30 12:22:50;;;;;;;4.57;2.80;;;2.30;99.90;;;;;;7716423;28;20287;-88
2023/01/30 12:27:00;;;;;;;3.80;2.50;;;2.40;99.90;;;;;;7716715;28;20168;-90
2023/01/30 12:31:07;;;;;;;3.30;2.33;;;2.40;99.90;;;;;;7716165;28;20252;-89
2023/01/30 12:34:54;;;;;;;4.40;2.87;;;2.40;99.90;;;;;;7715950;28;20211;-88
2023/01/30 12:38:50;;;;;;;3.93;3.00;;;2.50;99.90;;;;;;7715668;28;20655;-90
2023/01/30 12:43:04;;;;;;;4.33;2.70;;;2.50;99.90;;;;;;7716020;28;20564;-90
2023/01/30 12:47:08;;;;;;;4.43;2.77;;;2.50;99.90;;;;;;7716752;28;20199;-89
2023/01/30 12:51:15;;;;;;;3.40;2.50;;;2.50;99.90;;;;;;7715711;28;20173;-88
2023/01/30 12:55:04;;;;;;;3.93;2.87;;;2.60;99.90;;;;;;7715285;28;20210;-88
2023/01/30 12:59:13;;;;;;;4.10;2.63;;;2.50;99.90;;;;;;7715249;28;20216;-89
2023/01/30 13:03:05;;;;;;;5.63;2.77;;;2.60;99.90;;;;;;7715137;28;20234;-89
2023/01/30 13:07:23;;;;;;;5.57;2.97;;;2.60;99.90;;;;;;7715177;28;20173;-89
2023/01/30 13:11:27;;;;;;;3.57;2.43;;;2.60;99.90;;;;;;7716432;28;20172;-89
2023/01/30 13:15:13;;;;;;;4.53;2.87;;;2.60;99.90;;;;;;7715417;28;20708;-89
2023/01/30 13:19:14;;;;;;;5.13;3.10;;;2.60;99.90;;;;;;7715157;28;20642;-89
2023/01/30 13:23:18;;;;;;;6.23;3.07;;;2.60;99.90;;;;;;7715203;28;20283;-90
2023/01/30 13:27:17;;;;;;;4.73;2.63;;;2.70;99.90;;;;;;7715119;28;20172;-88
2023/01/30 13:31:08;;;;;;;5.77;3.53;;;2.70;99.90;;;;;;7714688;28;20256;-89
2023/01/30 13:34:55;;;;;;;6.23;2.83;;;2.70;99.90;;;;;;7715978;28;20287;-88
2023/01/30 13:38:51;;;;;;;6.77;3.20;;;2.70;99.90;;;;;;7714442;28;20267;-89
2023/01/30 13:43:23;;;;;;;6.00;2.70;;;2.70;99.90;;;;;;7715696;28;20568;-89
2023/01/30 13:47:38;;;;;;;5.30;2.33;;;2.70;99.90;;;;;;7636302;29;20252;-89
2023/01/30 13:51:28;;;;;;;4.77;2.10;;;2.80;99.90;;;;;;7636512;29;20198;-89
2023/01/30 13:55:45;;;;;;;6.57;2.23;;;2.80;99.90;;;;;;7652370;29;20246;-89
2023/01/30 13:59:54;;;;;;;5.10;2.50;;;2.90;99.90;;;;;;7636619;29;20202;-90
2023/01/30 14:03:43;;;;;;;3.67;1.87;;;3.00;99.90;;;;;;7636721;29;20341;-89
2023/01/30 14:07:38;;;;;;;4.17;2.20;;;3.00;99.90;;;;;;7636807;29;20277;-89
2023/01/30 14:11:33;;;;;;;4.07;2.10;;;3.10;99.90;;;;;;7636975;29;20182;-90
2023/01/30 14:15:28;;;;;;;3.33;1.97;;;3.00;99.90;;;;;;7655673;29;20867;-90
2023/01/30 14:19:31;;;;;;;6.87;2.70;;;3.20;99.90;;;;;;7641148;29;20219;-89
2023/01/30 14:23:33;;;;;;;4.80;2.53;;;3.00;99.90;;;;;;7712286;28;20209;-89
2023/01/30 14:27:30;;;;;;;5.10;2.47;;;3.00;99.90;;;;;;7719319;28;20251;-89
2023/01/30 14:31:49;;;;;;;9.43;3.23;;;3.00;99.90;;;;;;7719398;28;20180;-88
2023/01/30 14:35:34;;;;;;;10.57;2.37;;;3.00;99.90;;;;;;7718948;28;20200;-88
2023/01/30 14:39:38;;;;;;;9.23;2.70;;;3.10;99.90;;;;;;7718866;28;20307;-89
2023/01/30 14:43:26;;;;;;;4.77;2.33;;;3.10;99.90;;;;;;7719157;28;20655;-88
2023/01/30 14:47:18;;;;;;;8.23;2.60;;;3.00;99.90;;;;;;7718397;28;20240;-90
2023/01/30 14:51:11;;;;;;;5.23;2.90;;;3.00;99.90;;;;;;7718858;28;20200;-90
2023/01/30 15:02:51;;;;;;;9.43;2.60;;;2.90;99.90;;;;;;7672592;28;20224;-89
2023/01/30 15:06:37;;;;;;;7.30;2.13;;;2.90;99.90;;;;;;7698624;28;20703;-89
2023/01/30 15:10:53;;;;;;;5.30;2.83;;;2.90;99.90;;;;;;7718829;28;20690;-89
2023/01/30 15:14:57;;;;;;;6.90;2.63;;;2.90;99.90;;;;;;7711698;28;20264;-90
2023/01/30 15:18:52;;;;;;;5.73;2.60;;;2.90;99.90;;;;;;7691272;28;20205;-90
2023/01/30 15:22:40;;;;;;;4.23;1.97;;;2.90;99.90;;;;;;7676163;29;20559;-89
2023/01/30 15:26:53;;;;;;;8.83;2.90;;;2.90;99.90;;;;;;7687460;28;20205;-91
2023/01/30 15:30:55;;;;;;;8.23;2.10;;;2.90;99.90;;;;;;7681627;29;20185;-91
2023/01/30 15:34:54;;;;;;;4.73;2.17;;;2.90;99.90;;;;;;7686226;29;20272;-89
2023/01/30 15:38:39;;;;;;;4.43;1.67;;;2.90;99.90;;;;;;7714301;28;20860;-89
2023/01/30 15:42:25;;;;;;;3.30;1.60;;;2.80;99.90;;;;;;7684952;28;20626;-90
2023/01/30 15:46:52;;;;;;;5.43;1.90;;;2.80;99.90;;;;;;7702221;28;20204;-89
2023/01/30 15:50:38;;;;;;;5.60;2.37;;;2.80;99.90;;;;;;7685074;28;20261;-87
2023/01/30 15:54:24;;;;;;;4.90;2.23;;;2.80;99.90;;;;;;7711059;28;20181;-90
2023/01/30 15:58:15;;;;;;;6.20;2.40;;;2.80;99.90;;;;;;7694652;28;20220;-93
2023/01/30 16:02:20;;;;;;;9.73;2.97;;;2.60;99.90;;;;;;7672389;28;20275;-91
2023/01/30 16:06:06;;;;;;;11.10;3.73;;;2.60;99.90;;;;;;7692917;28;20212;-91
2023/01/30 16:09:56;;;;;;;11.83;5.90;;;2.50;99.90;;;;;;7690625;28;20370;-92
2023/01/30 16:13:42;;;;;;;11.10;4.73;;;2.40;99.90;;;;;;7675753;28;20272;-90
2023/01/30 16:17:30;;;;;;;5.73;3.07;;;2.40;99.90;;;;;;7685567;29;20213;-91
2023/01/30 16:21:39;;;;;;;6.10;2.80;;;2.40;99.90;;;;;;7681837;28;20198;-93
2023/01/30 16:25:28;;;;;;;10.37;2.80;;;2.30;99.90;;;;;;7679771;29;20201;-91
2023/01/30 16:29:20;;;;;;;6.67;3.83;;;2.30;99.90;;;;;;7687692;28;20181;-92
2023/01/30 16:33:09;;;;;;;7.33;3.67;;;2.30;99.90;;;;;;7690378;28;20181;-91
2023/01/30 16:36:57;;;;;;;6.67;2.97;;;2.30;99.90;;;;;;7697368;28;20682;-93
2023/01/30 16:40:45;;;;;;;11.13;3.63;;;2.30;99.90;;;;;;7698034;28;20196;-91
2023/01/30 16:44:31;;;;;;;6.57;3.43;;;2.30;99.90;;;;;;7686506;29;20272;-92
2023/01/30 16:48:21;;;;;;;6.63;3.50;;;2.50;99.90;;;;;;7686452;28;20201;-90
2023/01/30 16:52:29;;;;;;;11.40;3.53;;;2.40;99.90;;;;;;7685992;28;20181;-92
2023/01/30 16:56:16;;;;;;;9.97;2.97;;;2.40;99.90;;;;;;7689163;28;20215;-92
2023/01/30 17:00:15;;;;;;;10.33;2.70;;;2.40;99.90;;;;;;7679634;28;20212;-91
2023/01/30 17:04:02;;;;;;;11.17;3.13;;;2.50;99.90;;;;;;7698694;28;20180;-93
2023/01/30 17:07:50;;;;;;;9.33;3.17;;;2.60;99.90;;;;;;7698771;28;20569;-93
2023/01/30 17:11:36;;;;;;;11.57;2.80;;;2.60;99.90;;;;;;7699548;28;20181;-89
2023/01/30 17:15:27;;;;;;;16.03;6.47;;;2.60;99.90;;;;;;7694330;28;20197;-90
2023/01/30 17:19:13;;;;;;;10.33;3.03;;;2.70;99.90;;;;;;7693312;28;20208;-89
2023/01/30 17:23:04;;;;;;;9.60;3.03;;;2.70;99.90;;;;;;7685765;28;20184;-91
2023/01/30 17:26:57;;;;;;;7.40;3.17;;;2.70;99.90;;;;;;7711677;28;20243;-90
2023/01/30 17:30:43;;;;;;;13.67;3.07;;;2.70;99.90;;;;;;7695449;28;20187;-90
2023/01/30 17:34:29;;;;;;;8.63;2.70;;;2.70;99.90;;;;;;7691831;28;20205;-90
2023/01/30 17:38:14;;;;;;;8.67;2.43;;;2.60;99.90;;;;;;7684256;28;20219;-90
2023/01/30 17:42:00;;;;;;;15.20;3.70;;;2.50;99.90;;;;;;7683128;28;20257;-86
2023/01/30 17:45:47;;;;;;;10.07;2.73;;;2.50;99.90;;;;;;7677403;29;20204;-91
2023/01/30 17:49:32;;;;;;;11.03;2.53;;;2.50;99.90;;;;;;7688040;28;20181;-89
2023/01/30 17:53:18;;;;;;;13.53;3.80;;;2.50;99.90;;;;;;7701415;28;20212;-90
2023/01/30 17:57:08;;;;;;;5.37;2.80;;;2.50;99.90;;;;;;7700929;28;20201;-90
2023/01/30 18:00:54;;;;;;;12.10;2.57;;;2.40;99.90;;;;;;7694033;28;20223;-90
2023/01/30 18:04:39;;;;;;;11.87;4.77;;;2.40;99.90;;;;;;7690744;28;20177;-90
2023/01/30 18:08:25;;;;;;;15.13;4.80;;;2.40;99.90;;;;;;7681126;28;20220;-90
2023/01/30 18:12:10;;;;;;;16.87;6.20;;;2.30;99.90;;;;;;7696242;28;20192;-91
2023/01/30 18:15:58;;;;;;;13.33;4.43;;;2.30;99.90;;;;;;7691463;28;20205;-90
2023/01/30 18:19:44;;;;;;;9.30;2.90;;;2.30;99.90;;;;;;7697212;28;20224;-85
2023/01/30 18:23:30;;;;;;;10.80;2.83;;;2.40;99.90;;;;;;7679093;28;20182;-86
2023/01/30 18:27:15;;;;;;;12.10;3.40;;;2.40;99.90;;;;;;7702357;28;20212;-90
2023/01/30 18:31:01;;;;;;;13.07;3.73;;;2.50;99.90;;;;;;7677596;29;20182;-89
2023/01/30 18:34:47;;;;;;;11.23;2.23;;;2.40;99.90;;;;;;7699785;28;20209;-89
2023/01/30 18:38:32;;;;;;;13.30;4.13;;;2.50;99.90;;;;;;7691502;28;20199;-90
2023/01/30 18:42:18;;;;;;;9.27;2.57;;;2.50;99.90;;;;;;7708479;28;20173;-90
2023/01/30 18:46:10;;;;;;;9.73;2.07;;;2.50;99.90;;;;;;7718902;28;20204;-91
2023/01/30 18:49:55;;;;;;;7.00;2.47;;;2.60;99.90;;;;;;7703994;28;20631;-91
2023/01/30 18:53:42;;;;;;;11.07;2.27;;;2.70;99.90;;;;;;7682944;28;20205;-88
2023/01/30 18:57:35;;;;;;;9.87;3.17;;;2.60;99.90;;;;;;7673227;28;20694;-91
2023/01/30 19:01:37;;;;;;;10.10;2.77;;;2.70;99.90;;;;;;7693443;28;20212;-91
2023/01/30 19:05:26;;;;;;;13.27;3.10;;;2.80;99.90;;;;;;7681316;28;20435;-91
2023/01/30 19:09:14;;;;;;;15.40;2.93;;;2.70;99.90;;;;;;7691821;28;20239;-92
2023/01/30 19:13:32;;;;;;;14.27;2.83;;;2.70;99.90;;;;;;7700911;28;20192;-91
2023/01/30 19:17:18;;;;;;;12.03;2.33;;;2.70;99.90;;;;;;7676683;28;20210;-89
2023/01/30 19:21:22;;;;;;;10.50;2.33;;;2.80;99.90;;;;;;7685790;28;20296;-93
2023/01/30 19:25:08;;;;;;;15.27;2.53;;;2.80;99.90;;;;;;7684970;28;20212;-90
2023/01/30 19:28:54;;;;;;;13.07;3.07;;;2.80;99.90;;;;;;7688132;28;20189;-91
2023/01/30 19:32:41;;;;;;;12.23;2.37;;;2.80;99.90;;;;;;7687695;28;20188;-90
2023/01/30 19:36:30;;;;;;;11.23;2.10;;;2.90;99.90;;;;;;7678308;29;20213;-91
2023/01/30 19:40:23;;;;;;;11.03;2.10;;;2.90;99.90;;;;;;7682393;28;20224;-89
2023/01/30 19:44:11;;;;;;;5.60;1.77;;;2.90;99.90;;;;;;7685917;28;20221;-91
2023/01/30 19:48:01;;;;;;;13.63;3.47;;;2.80;99.90;;;;;;7691887;28;20208;-91
2023/01/30 19:51:47;;;;;;;13.30;2.90;;;2.80;99.90;;;;;;7673543;28;20181;-91
2023/01/30 19:55:34;;;;;;;18.03;2.40;;;2.80;99.90;;;;;;7684834;28;20634;-90
2023/01/30 19:59:21;;;;;;;13.20;2.30;;;2.80;99.90;;;;;;7683418;28;20210;-91
2023/01/30 20:03:06;;;;;;;9.93;2.30;;;2.80;99.90;;;;;;7692234;28;20184;-87
2023/01/30 20:06:53;;;;;;;10.10;2.83;;;2.80;99.90;;;;;;7684545;29;20212;-91
2023/01/30 20:10:40;;;;;;;16.13;3.97;;;2.80;99.90;;;;;;7686654;28;20255;-91
2023/01/30 20:14:29;;;;;;;16.40;3.20;;;2.90;99.90;;;;;;7691088;28;20191;-90
2023/01/30 20:18:24;;;;;;;6.57;1.90;;;3.00;99.90;;;;;;7694368;28;20741;-91
2023/01/30 20:22:09;;;;;;;15.93;3.07;;;3.00;99.90;;;;;;7695175;28;20236;-89
2023/01/30 20:25:55;;;;;;;17.43;2.23;;;2.90;99.90;;;;;;7702927;28;20201;-87
2023/01/30 20:29:41;;;;;;;16.67;3.27;;;2.90;99.90;;;;;;7679712;28;20257;-91
2023/01/30 20:33:30;;;;;;;22.87;2.97;;;2.90;99.90;;;;;;7683444;28;20276;-91
2023/01/30 20:37:15;;;;;;;17.63;2.40;;;3.00;99.90;;;;;;7714808;28;20236;-91